Time;durP1;ratioP1;P1;durP2;ratioP2;P2;SDS_P1;SDS_P2;PMS_P1;PMS_P2;Temp;Humidity;BMP_temperature;BMP_pressure;BME280_temperature;BME280_humidity;BME280_pressure;Samples;Min_cycle;Max_cycle;Signal;HPM_P1;HPM_P2
2020/12/04 00:00:24;;;;;;;14.65;9.85;;;5.10;99.90;;;;;;5044750;28;20212;-76
2020/12/04 00:02:50;;;;;;;16.20;10.63;;;5.20;99.90;;;;;;5044740;28;20685;-75
2020/12/04 00:05:17;;;;;;;14.30;9.40;;;5.10;99.90;;;;;;5050041;28;20806;-75
2020/12/04 00:07:43;;;;;;;17.08;9.45;;;5.00;99.90;;;;;;5050367;28;20665;-75
2020/12/04 00:10:10;;;;;;;17.63;10.20;;;5.00;99.90;;;;;;5052443;28;20210;-75
2020/12/04 00:12:40;;;;;;;16.42;10.07;;;4.70;99.90;;;;;;5051414;28;20226;-75
2020/12/04 00:15:06;;;;;;;18.42;9.13;;;4.70;99.90;;;;;;5052325;28;20265;-75
2020/12/04 00:17:34;;;;;;;15.88;10.23;;;4.90;99.90;;;;;;5051974;28;20590;-75
2020/12/04 00:20:01;;;;;;;16.83;10.05;;;5.10;99.90;;;;;;5051951;28;20620;-75
2020/12/04 00:22:27;;;;;;;14.75;9.30;;;5.10;99.90;;;;;;5051763;28;20230;-74
2020/12/04 00:24:54;;;;;;;20.50;10.50;;;5.30;99.90;;;;;;5051843;28;20700;-74
2020/12/04 00:27:20;;;;;;;18.85;10.45;;;5.20;99.90;;;;;;5051713;28;20198;-74
2020/12/04 00:29:46;;;;;;;16.65;9.50;;;5.30;99.90;;;;;;5051193;28;20217;-74
2020/12/04 00:32:13;;;;;;;17.92;10.75;;;5.00;99.90;;;;;;5051438;28;20264;-74
2020/12/04 00:34:40;;;;;;;19.35;12.20;;;5.00;99.90;;;;;;5051116;28;20199;-74
2020/12/04 00:37:07;;;;;;;14.32;9.82;;;5.20;99.90;;;;;;5054508;28;20236;-74
2020/12/04 00:39:34;;;;;;;19.10;12.02;;;5.10;99.90;;;;;;5051901;28;20236;-74
2020/12/04 00:42:01;;;;;;;17.88;10.88;;;5.30;99.90;;;;;;5050487;28;20226;-74
2020/12/04 00:44:28;;;;;;;17.92;10.00;;;5.40;99.90;;;;;;5051714;28;20252;-74
2020/12/04 00:46:57;;;;;;;16.45;10.18;;;5.30;99.90;;;;;;5051472;28;20210;-74
2020/12/04 00:49:23;;;;;;;16.23;10.45;;;5.10;99.90;;;;;;5051640;28;20210;-74
2020/12/04 00:51:53;;;;;;;17.77;11.10;;;5.20;99.90;;;;;;5051585;28;20284;-74
2020/12/04 00:54:19;;;;;;;15.48;9.50;;;4.90;99.90;;;;;;5051497;28;20246;-75
2020/12/04 00:56:46;;;;;;;16.88;10.13;;;4.70;99.90;;;;;;5050921;28;20198;-74
2020/12/04 00:59:13;;;;;;;17.70;10.15;;;5.00;99.90;;;;;;5050507;28;20202;-75
2020/12/04 01:01:39;;;;;;;16.33;10.47;;;5.10;99.90;;;;;;5052040;28;20202;-74
2020/12/04 01:04:06;;;;;;;15.75;9.50;;;4.80;99.90;;;;;;5059135;28;20195;-75
2020/12/04 01:06:32;;;;;;;18.95;9.07;;;4.70;99.90;;;;;;5050824;28;20210;-75
2020/12/04 01:09:00;;;;;;;17.85;10.77;;;4.60;99.90;;;;;;5051408;28;20206;-76
2020/12/04 01:11:30;;;;;;;17.60;10.02;;;5.00;99.90;;;;;;5058631;28;20705;-75
2020/12/04 01:13:56;;;;;;;17.48;9.90;;;4.80;99.90;;;;;;5050728;28;20203;-74
2020/12/04 01:16:23;;;;;;;16.25;10.07;;;5.10;99.90;;;;;;5049072;28;20229;-74
2020/12/04 01:18:49;;;;;;;17.25;10.45;;;4.80;99.90;;;;;;5062810;28;20271;-74
2020/12/04 01:21:16;;;;;;;17.92;11.10;;;4.90;99.90;;;;;;5041449;28;20226;-74
2020/12/04 01:23:43;;;;;;;14.10;8.00;;;5.00;99.90;;;;;;5049155;28;20798;-74
2020/12/04 01:26:10;;;;;;;19.88;10.20;;;5.20;99.90;;;;;;5050145;28;20228;-74
2020/12/04 01:28:36;;;;;;;18.70;10.35;;;5.20;99.90;;;;;;5050257;28;20207;-74
2020/12/04 01:31:03;;;;;;;18.92;11.45;;;5.10;99.90;;;;;;5050395;28;20210;-74
2020/12/04 01:33:29;;;;;;;18.17;9.60;;;5.20;99.90;;;;;;5050153;28;20219;-74
2020/12/04 01:35:56;;;;;;;19.05;11.02;;;5.20;99.90;;;;;;5050295;28;20206;-74
2020/12/04 01:38:22;;;;;;;16.73;10.43;;;5.10;99.90;;;;;;5050272;28;20210;-74
2020/12/04 01:40:49;;;;;;;15.45;9.25;;;5.20;99.90;;;;;;5049994;28;20665;-74
2020/12/04 01:43:16;;;;;;;17.17;11.38;;;5.00;99.90;;;;;;5049727;28;20299;-74
2020/12/04 01:45:43;;;;;;;17.90;10.77;;;5.10;99.90;;;;;;5050428;28;20218;-74
2020/12/04 01:48:09;;;;;;;16.98;10.77;;;5.30;99.90;;;;;;5049195;28;20218;-74
2020/12/04 01:50:36;;;;;;;17.10;10.63;;;5.20;99.90;;;;;;5050217;28;20226;-74
2020/12/04 01:53:02;;;;;;;16.60;9.93;;;5.00;99.90;;;;;;5049890;28;20406;-74
2020/12/04 01:55:30;;;;;;;17.55;11.45;;;5.20;99.90;;;;;;5049727;28;20207;-74
2020/12/04 01:57:57;;;;;;;18.27;11.55;;;5.20;99.90;;;;;;5049087;28;20260;-74
2020/12/04 02:00:24;;;;;;;20.23;11.50;;;5.20;99.90;;;;;;5049728;28;20207;-74
2020/12/04 02:02:51;;;;;;;16.27;10.60;;;5.30;99.90;;;;;;5049736;28;20859;-74
2020/12/04 02:05:17;;;;;;;17.52;11.15;;;5.10;99.90;;;;;;5049090;28;20652;-74
2020/12/04 02:07:51;;;;;;;17.63;11.35;;;5.00;99.90;;;;;;5049618;28;20199;-74
2020/12/04 02:10:22;;;;;;;18.73;12.65;;;5.20;99.90;;;;;;5050902;28;20248;-74
2020/12/04 02:12:50;;;;;;;17.60;11.23;;;5.20;99.90;;;;;;5049328;28;20223;-74
2020/12/04 02:15:17;;;;;;;19.98;11.95;;;5.00;99.90;;;;;;5049794;28;20258;-74
2020/12/04 02:17:46;;;;;;;18.50;9.48;;;5.00;99.90;;;;;;5049718;28;20210;-74
2020/12/04 02:20:13;;;;;;;22.55;11.50;;;5.10;99.90;;;;;;5048979;28;20203;-74
2020/12/04 02:22:40;;;;;;;17.90;10.73;;;5.10;99.90;;;;;;5049961;28;20226;-74
2020/12/04 02:25:11;;;;;;;17.30;11.05;;;4.90;99.90;;;;;;5049539;28;20213;-74
2020/12/04 02:27:45;;;;;;;20.40;11.70;;;5.00;99.90;;;;;;5049382;28;20206;-74
2020/12/04 02:30:13;;;;;;;17.08;11.45;;;5.00;99.90;;;;;;5048862;28;20285;-74
2020/12/04 02:32:40;;;;;;;19.15;12.30;;;5.20;99.90;;;;;;5049742;28;20700;-74
2020/12/04 02:35:06;;;;;;;18.05;11.63;;;5.00;99.90;;;;;;5049477;28;20199;-74
2020/12/04 02:37:33;;;;;;;17.02;10.95;;;4.90;99.90;;;;;;5049235;28;20556;-75
2020/12/04 02:40:00;;;;;;;17.27;10.70;;;5.00;99.90;;;;;;5049218;28;20349;-75
2020/12/04 02:42:27;;;;;;;16.42;10.75;;;4.90;99.90;;;;;;5049415;28;20320;-75
2020/12/04 02:44:53;;;;;;;18.63;10.88;;;5.00;99.90;;;;;;5049334;28;20198;-75
2020/12/04 02:47:24;;;;;;;19.38;11.40;;;5.00;99.90;;;;;;5048605;28;20264;-75
2020/12/04 02:49:51;;;;;;;18.63;10.70;;;4.90;99.90;;;;;;5049215;28;20207;-75
2020/12/04 02:52:20;;;;;;;19.33;11.40;;;4.80;99.90;;;;;;5048980;28;20215;-75
2020/12/04 02:54:47;;;;;;;19.10;11.82;;;5.00;99.90;;;;;;5049177;28;20672;-75
2020/12/04 02:57:15;;;;;;;19.80;10.77;;;5.10;99.90;;;;;;5049023;28;20669;-75
2020/12/04 02:59:41;;;;;;;18.00;11.48;;;4.80;99.90;;;;;;5048885;28;20209;-75
2020/12/04 03:02:08;;;;;;;24.25;13.55;;;4.90;99.90;;;;;;5049181;28;20230;-75
2020/12/04 03:04:34;;;;;;;21.13;11.95;;;4.70;99.90;;;;;;5049005;28;20207;-75
2020/12/04 03:07:01;;;;;;;19.98;11.25;;;4.90;99.90;;;;;;5049131;28;20645;-75
2020/12/04 03:09:27;;;;;;;22.08;12.27;;;4.90;99.90;;;;;;5056185;28;20221;-75
2020/12/04 03:11:55;;;;;;;18.50;11.77;;;4.80;99.90;;;;;;5054432;28;20245;-75
2020/12/04 03:14:22;;;;;;;22.35;12.73;;;4.70;99.90;;;;;;5049054;28;20199;-75
2020/12/04 03:16:49;;;;;;;17.20;12.35;;;4.80;99.90;;;;;;5049091;28;20588;-75
2020/12/04 03:19:15;;;;;;;19.27;11.93;;;4.80;99.90;;;;;;5048158;28;20214;-75
2020/12/04 03:21:42;;;;;;;20.92;11.90;;;4.70;99.90;;;;;;5048910;28;20230;-75
2020/12/04 03:24:09;;;;;;;17.48;11.30;;;4.70;99.90;;;;;;5048701;28;20232;-75
2020/12/04 03:26:35;;;;;;;25.90;12.75;;;4.90;99.90;;;;;;5048728;28;20280;-75
2020/12/04 03:29:02;;;;;;;22.02;12.45;;;4.70;99.90;;;;;;5048977;28;20222;-75
2020/12/04 03:31:29;;;;;;;21.80;12.40;;;4.70;99.90;;;;;;5048491;28;20236;-75
2020/12/04 03:33:56;;;;;;;23.05;12.73;;;4.60;99.90;;;;;;5048633;28;20642;-75
2020/12/04 03:36:22;;;;;;;18.35;11.20;;;4.60;99.90;;;;;;5048844;28;20989;-75
2020/12/04 03:38:49;;;;;;;23.42;12.10;;;4.70;99.90;;;;;;5048513;28;20222;-75
2020/12/04 03:41:15;;;;;;;21.77;12.05;;;4.80;99.90;;;;;;5052230;28;20203;-76
2020/12/04 03:43:42;;;;;;;21.80;11.68;;;4.70;99.90;;;;;;5052642;28;20218;-75
2020/12/04 03:46:09;;;;;;;19.05;11.32;;;4.80;99.90;;;;;;5052458;28;20351;-75
2020/12/04 03:48:36;;;;;;;23.75;11.02;;;4.80;99.90;;;;;;5052588;28;20209;-74
2020/12/04 03:51:03;;;;;;;19.60;12.40;;;5.00;99.90;;;;;;5052963;28;20202;-75
2020/12/04 03:53:29;;;;;;;18.45;11.27;;;5.20;99.90;;;;;;5052913;28;20636;-75
2020/12/04 03:55:56;;;;;;;21.92;12.93;;;5.00;99.90;;;;;;5052982;28;20202;-75
2020/12/04 03:58:22;;;;;;;22.20;12.52;;;4.70;99.90;;;;;;5051957;28;20225;-74
2020/12/04 04:00:49;;;;;;;21.52;12.20;;;4.60;99.90;;;;;;5051585;28;20210;-74
2020/12/04 04:03:16;;;;;;;18.65;11.13;;;4.70;99.90;;;;;;5052232;28;20695;-74
2020/12/04 04:05:43;;;;;;;17.63;11.02;;;4.90;99.90;;;;;;5053085;28;20203;-75
2020/12/04 04:08:09;;;;;;;19.33;11.73;;;4.60;99.90;;;;;;5053824;28;20199;-75
2020/12/04 04:10:36;;;;;;;19.05;11.52;;;4.50;99.90;;;;;;5062424;28;20280;-75
2020/12/04 04:13:02;;;;;;;18.23;10.23;;;4.50;99.90;;;;;;5051855;28;20214;-75
2020/12/04 04:15:29;;;;;;;25.10;11.52;;;4.50;99.90;;;;;;5051974;28;20277;-74
2020/12/04 04:17:58;;;;;;;18.40;11.45;;;4.50;99.90;;;;;;5051839;28;20206;-74
2020/12/04 04:20:25;;;;;;;18.42;10.85;;;4.70;99.90;;;;;;5051549;28;20210;-75
2020/12/04 04:22:52;;;;;;;19.85;11.00;;;4.50;99.90;;;;;;5051801;28;20226;-75
2020/12/04 04:25:19;;;;;;;20.70;11.02;;;4.60;99.90;;;;;;5052102;28;20218;-75
2020/12/04 04:27:46;;;;;;;20.30;11.45;;;4.80;99.90;;;;;;5051623;28;20216;-74
2020/12/04 04:30:13;;;;;;;20.63;10.65;;;4.80;99.90;;;;;;5051638;28;20240;-75
2020/12/04 04:32:40;;;;;;;28.80;11.38;;;4.80;99.90;;;;;;5051553;28;20229;-74
2020/12/04 04:35:07;;;;;;;19.52;11.63;;;4.80;99.90;;;;;;5051182;28;20214;-74
2020/12/04 04:37:34;;;;;;;20.33;11.07;;;5.20;99.90;;;;;;5051589;28;20214;-74
2020/12/04 04:40:01;;;;;;;23.85;12.27;;;5.20;99.90;;;;;;5051673;28;20696;-75
2020/12/04 04:42:28;;;;;;;20.52;11.55;;;5.20;99.90;;;;;;5051534;28;20230;-75
2020/12/04 04:44:55;;;;;;;19.70;10.50;;;5.20;99.90;;;;;;5051392;28;20202;-75
2020/12/04 04:47:29;;;;;;;20.88;11.77;;;4.90;99.90;;;;;;5051698;28;20217;-75
2020/12/04 04:49:55;;;;;;;19.17;9.85;;;5.10;99.90;;;;;;5051154;28;20203;-74
2020/12/04 04:52:23;;;;;;;17.52;9.93;;;5.30;99.90;;;;;;5049913;28;20280;-74
2020/12/04 04:54:50;;;;;;;17.40;10.93;;;5.10;99.90;;;;;;5050654;28;20210;-74
2020/12/04 04:57:21;;;;;;;21.67;11.02;;;4.90;99.90;;;;;;5050985;28;20207;-74
2020/12/04 04:59:47;;;;;;;19.92;11.15;;;4.90;99.90;;;;;;5050417;28;20206;-74
2020/12/04 05:02:15;;;;;;;22.50;10.85;;;4.90;99.90;;;;;;5050829;28;20866;-74
2020/12/04 05:04:49;;;;;;;19.15;10.43;;;5.10;99.90;;;;;;5050979;28;20213;-74
2020/12/04 05:07:18;;;;;;;22.20;10.45;;;4.90;99.90;;;;;;5050805;28;20253;-75
2020/12/04 05:09:45;;;;;;;16.42;10.32;;;4.90;99.90;;;;;;5051746;28;20242;-75
2020/12/04 05:12:12;;;;;;;18.77;10.63;;;4.80;99.90;;;;;;5051266;28;20303;-75
2020/12/04 05:14:40;;;;;;;14.25;9.10;;;5.10;99.90;;;;;;5050608;28;20206;-75
2020/12/04 05:17:09;;;;;;;18.45;10.77;;;5.00;99.90;;;;;;5051723;28;20276;-75
2020/12/04 05:19:37;;;;;;;14.38;9.43;;;5.00;99.90;;;;;;5050561;28;20211;-75
2020/12/04 05:22:11;;;;;;;14.48;9.25;;;5.50;99.90;;;;;;5052258;28;20646;-75
2020/12/04 05:24:38;;;;;;;16.80;9.70;;;5.30;99.90;;;;;;5052923;28;20659;-75
2020/12/04 05:27:24;;;;;;;17.15;10.50;;;5.10;99.90;;;;;;5064719;28;20285;-75
2020/12/04 05:29:53;;;;;;;16.15;9.85;;;5.10;99.90;;;;;;5087575;28;20220;-75
2020/12/04 05:32:19;;;;;;;16.98;10.13;;;5.30;99.90;;;;;;5063333;28;20241;-75
2020/12/04 05:34:46;;;;;;;16.08;9.50;;;5.30;99.90;;;;;;5052789;28;20302;-74
2020/12/04 05:37:13;;;;;;;15.32;10.60;;;5.20;99.90;;;;;;5050817;28;20202;-76
2020/12/04 05:39:43;;;;;;;14.55;9.02;;;5.40;99.90;;;;;;5051014;28;20215;-75
2020/12/04 05:42:09;;;;;;;15.23;9.18;;;5.40;99.90;;;;;;5050763;28;20639;-75
2020/12/04 05:44:51;;;;;;;16.50;9.68;;;5.60;99.90;;;;;;5046589;28;20219;-74
2020/12/04 05:47:20;;;;;;;19.35;9.65;;;5.40;99.90;;;;;;5051024;28;20219;-75
2020/12/04 05:49:46;;;;;;;18.00;10.55;;;5.40;99.90;;;;;;5050077;28;20297;-76
2020/12/04 05:52:14;;;;;;;21.80;9.38;;;5.50;99.90;;;;;;5052237;28;20766;-75
2020/12/04 05:54:43;;;;;;;21.17;10.95;;;5.60;99.90;;;;;;5050825;28;20210;-75
2020/12/04 05:57:11;;;;;;;19.95;9.30;;;5.60;99.90;;;;;;5038769;28;20215;-74
2020/12/04 05:59:45;;;;;;;18.75;9.43;;;5.60;99.90;;;;;;5061375;28;20227;-75
2020/12/04 06:02:16;;;;;;;15.93;9.75;;;5.60;99.90;;;;;;5049406;28;20722;-74
2020/12/04 06:04:43;;;;;;;13.80;9.27;;;5.30;99.90;;;;;;5050134;28;20230;-74
2020/12/04 06:07:13;;;;;;;17.25;8.95;;;5.50;99.90;;;;;;5049921;28;20669;-75
2020/12/04 06:09:41;;;;;;;15.52;9.85;;;5.20;99.90;;;;;;5058479;28;20790;-75
2020/12/04 06:12:13;;;;;;;16.48;8.82;;;5.30;99.90;;;;;;5070324;28;20233;-74
2020/12/04 06:14:40;;;;;;;16.80;9.35;;;5.30;99.90;;;;;;5051642;28;20289;-74
2020/12/04 06:17:12;;;;;;;14.05;8.73;;;5.40;99.90;;;;;;5049836;28;20218;-76
2020/12/04 06:19:40;;;;;;;12.40;7.68;;;5.50;99.90;;;;;;5049453;28;20221;-74
2020/12/04 06:22:09;;;;;;;12.45;7.85;;;5.90;99.90;;;;;;5049242;28;20234;-74
2020/12/04 06:25:03;;;;;;;12.07;7.60;;;5.80;99.90;;;;;;5049530;28;20222;-74
2020/12/04 06:27:38;;;;;;;14.20;8.13;;;6.00;99.90;;;;;;5039818;28;20252;-74
2020/12/04 06:30:06;;;;;;;12.90;7.15;;;5.80;99.90;;;;;;5050027;28;20261;-74
2020/12/04 06:32:37;;;;;;;12.07;7.78;;;5.90;99.90;;;;;;5048350;28;20245;-74
2020/12/04 06:35:05;;;;;;;16.48;7.50;;;5.90;99.90;;;;;;5053050;28;20356;-74
2020/12/04 06:37:37;;;;;;;15.05;8.32;;;5.90;99.90;;;;;;5066483;28;20541;-74
2020/12/04 06:40:26;;;;;;;16.35;8.48;;;5.70;99.90;;;;;;5061640;28;20498;-74
2020/12/04 06:42:54;;;;;;;14.02;7.97;;;5.60;99.90;;;;;;5048539;28;20831;-75
2020/12/04 06:45:21;;;;;;;12.32;6.55;;;6.00;99.90;;;;;;5038173;28;20211;-75
2020/12/04 06:48:10;;;;;;;12.77;7.45;;;6.00;99.90;;;;;;5056450;28;20210;-75
2020/12/04 06:50:41;;;;;;;15.00;9.25;;;5.90;99.90;;;;;;5059937;28;20293;-74
2020/12/04 06:53:10;;;;;;;14.73;8.68;;;5.90;99.90;;;;;;5060919;28;20229;-73
2020/12/04 06:55:37;;;;;;;12.50;7.90;;;5.60;99.90;;;;;;5049367;28;20203;-74
2020/12/04 06:58:03;;;;;;;14.70;9.10;;;5.90;99.90;;;;;;5051452;28;20642;-74
2020/12/04 07:00:30;;;;;;;15.63;9.35;;;5.70;99.90;;;;;;5068475;28;20282;-75
2020/12/04 07:02:59;;;;;;;16.88;10.02;;;5.70;99.90;;;;;;5063495;28;20228;-74
2020/12/04 07:05:26;;;;;;;15.73;9.45;;;5.70;99.90;;;;;;5056210;28;20588;-74
2020/12/04 07:08:02;;;;;;;14.25;9.60;;;5.70;99.90;;;;;;5048996;28;20565;-74
2020/12/04 07:10:31;;;;;;;17.23;9.52;;;5.70;99.90;;;;;;5055668;28;20629;-75
2020/12/04 07:13:01;;;;;;;21.02;10.43;;;5.70;99.90;;;;;;5049230;28;20297;-74
2020/12/04 07:15:28;;;;;;;15.43;9.30;;;5.90;99.90;;;;;;5052586;28;20198;-74
2020/12/04 07:17:56;;;;;;;17.00;9.88;;;5.80;99.90;;;;;;5057588;28;20211;-74
2020/12/04 07:20:30;;;;;;;16.67;11.15;;;5.80;99.90;;;;;;5050489;28;20244;-74
2020/12/04 07:22:57;;;;;;;13.95;9.50;;;5.60;99.90;;;;;;5052698;28;20261;-74
2020/12/04 07:25:23;;;;;;;15.32;9.70;;;5.80;99.90;;;;;;5065355;28;20210;-74
2020/12/04 07:27:52;;;;;;;17.08;9.27;;;5.50;99.90;;;;;;5052567;28;20198;-76
2020/12/04 07:30:19;;;;;;;15.40;9.75;;;5.50;99.90;;;;;;5053328;28;20286;-75
2020/12/04 07:32:50;;;;;;;19.08;10.90;;;5.50;99.90;;;;;;5072035;28;20233;-76
2020/12/04 07:35:18;;;;;;;21.60;9.52;;;5.60;99.90;;;;;;5072009;28;20202;-75
2020/12/04 07:37:44;;;;;;;16.75;10.35;;;5.60;99.90;;;;;;5073435;28;20202;-75
2020/12/04 07:40:12;;;;;;;18.23;10.27;;;5.50;99.90;;;;;;5063848;28;20642;-75
2020/12/04 07:42:40;;;;;;;17.77;10.35;;;5.50;99.90;;;;;;5052031;28;20276;-75
2020/12/04 07:45:07;;;;;;;17.85;10.02;;;5.60;99.90;;;;;;5053216;28;20853;-76
2020/12/04 07:47:36;;;;;;;15.35;11.00;;;5.80;99.90;;;;;;5052471;28;20240;-76
2020/12/04 07:50:04;;;;;;;17.45;9.43;;;5.80;99.90;;;;;;5052758;28;20210;-75
2020/12/04 07:52:36;;;;;;;18.98;11.15;;;5.80;99.90;;;;;;5052428;28;20576;-75
2020/12/04 07:55:03;;;;;;;19.58;10.90;;;5.70;99.90;;;;;;5052258;28;20535;-75
2020/12/04 07:57:40;;;;;;;20.58;11.80;;;5.70;99.90;;;;;;5052599;28;20264;-75
2020/12/04 08:00:07;;;;;;;17.45;10.43;;;5.70;99.90;;;;;;5051834;28;20213;-75
2020/12/04 08:02:34;;;;;;;16.45;11.02;;;5.80;99.90;;;;;;5052820;28;20226;-75
2020/12/04 08:05:01;;;;;;;17.27;10.07;;;5.70;99.90;;;;;;5051865;28;20256;-75
2020/12/04 08:07:31;;;;;;;23.20;11.35;;;5.80;99.90;;;;;;5051957;28;20574;-76
2020/12/04 08:09:59;;;;;;;19.58;11.32;;;5.70;99.90;;;;;;5052281;28;20520;-76
2020/12/04 08:12:29;;;;;;;19.20;11.43;;;5.80;99.90;;;;;;5052664;28;20303;-74
2020/12/04 08:14:57;;;;;;;24.08;12.60;;;5.80;99.90;;;;;;5044711;28;20207;-75
2020/12/04 08:17:25;;;;;;;15.50;11.00;;;6.00;99.90;;;;;;5062246;28;20210;-75
2020/12/04 08:19:53;;;;;;;15.60;10.75;;;6.10;99.90;;;;;;5070553;28;20224;-75
2020/12/04 08:22:27;;;;;;;19.98;10.85;;;6.00;99.90;;;;;;5051816;28;20292;-75
2020/12/04 08:25:04;;;;;;;18.15;11.55;;;6.00;99.90;;;;;;5047241;28;20237;-75
2020/12/04 08:27:31;;;;;;;18.55;11.00;;;6.10;99.90;;;;;;5069057;28;20205;-75
2020/12/04 08:30:15;;;;;;;18.85;10.52;;;5.90;99.90;;;;;;5051906;28;20213;-75
2020/12/04 08:32:43;;;;;;;19.25;10.75;;;5.90;99.90;;;;;;5052152;28;20223;-75
2020/12/04 08:35:16;;;;;;;18.33;10.75;;;6.10;99.90;;;;;;5046721;28;20612;-74
2020/12/04 08:37:45;;;;;;;19.75;12.50;;;5.90;99.90;;;;;;5070349;28;20217;-81
2020/12/04 08:40:22;;;;;;;22.42;10.70;;;6.00;99.90;;;;;;5072168;28;20209;-74
2020/12/04 08:42:49;;;;;;;19.38;10.65;;;6.10;99.90;;;;;;5064044;28;20312;-75
2020/12/04 08:45:16;;;;;;;20.20;11.13;;;5.80;99.90;;;;;;5049815;28;20252;-76
2020/12/04 08:47:45;;;;;;;19.35;12.85;;;6.00;99.90;;;;;;5034347;28;20295;-73
2020/12/04 08:50:17;;;;;;;19.63;11.43;;;5.70;99.90;;;;;;5031834;28;20281;-74
2020/12/04 08:52:50;;;;;;;21.20;12.40;;;5.80;99.90;;;;;;5051235;28;20222;-74
2020/12/04 08:55:19;;;;;;;25.58;12.20;;;5.70;99.90;;;;;;5050614;28;20221;-74
2020/12/04 08:57:46;;;;;;;20.33;11.55;;;6.40;99.90;;;;;;5051426;28;20214;-74
2020/12/04 09:00:16;;;;;;;16.70;12.02;;;6.10;99.90;;;;;;5048668;28;20245;-74
2020/12/04 09:02:44;;;;;;;26.55;11.60;;;6.30;99.90;;;;;;5046731;28;20230;-73
2020/12/04 09:05:14;;;;;;;24.73;12.75;;;6.20;99.90;;;;;;5037983;28;20633;-74
2020/12/04 09:07:41;;;;;;;17.67;10.85;;;6.30;99.90;;;;;;5050676;28;20202;-74
2020/12/04 09:10:10;;;;;;;19.20;11.90;;;6.60;99.90;;;;;;5049780;28;20626;-74
2020/12/04 09:12:36;;;;;;;19.75;11.45;;;6.60;99.90;;;;;;5050672;28;20221;-74
2020/12/04 09:15:05;;;;;;;27.17;13.45;;;6.50;99.90;;;;;;5050057;28;20218;-73
2020/12/04 09:17:31;;;;;;;18.90;11.05;;;6.70;99.90;;;;;;5050418;28;20578;-74
2020/12/04 09:19:58;;;;;;;18.15;10.85;;;6.70;99.90;;;;;;5049612;28;20352;-74
2020/12/04 09:22:25;;;;;;;19.25;12.32;;;6.60;99.90;;;;;;5051559;28;20530;-75
2020/12/04 09:24:52;;;;;;;17.77;11.23;;;7.00;99.90;;;;;;5053191;28;20264;-75
2020/12/04 09:27:19;;;;;;;22.55;11.93;;;6.90;99.90;;;;;;5042077;28;20213;-82
2020/12/04 09:29:45;;;;;;;21.35;12.13;;;6.80;99.90;;;;;;5043249;28;20205;-76
2020/12/04 09:32:13;;;;;;;21.08;11.40;;;6.70;99.90;;;;;;5050528;28;20248;-76
2020/12/04 09:34:41;;;;;;;18.02;11.10;;;6.90;99.90;;;;;;5050045;28;20203;-75
2020/12/04 09:37:18;;;;;;;21.63;11.35;;;6.70;99.90;;;;;;5049865;28;20210;-75
2020/12/04 09:39:46;;;;;;;23.40;10.95;;;6.90;99.90;;;;;;5049482;28;20259;-75
2020/12/04 09:42:14;;;;;;;19.25;9.85;;;7.00;99.90;;;;;;5049549;28;20272;-75
2020/12/04 09:44:41;;;;;;;21.45;11.85;;;6.70;99.90;;;;;;5043855;28;20230;-75
2020/12/04 09:47:08;;;;;;;18.73;11.00;;;6.70;99.90;;;;;;5050765;28;20226;-75
2020/12/04 09:49:35;;;;;;;18.90;11.30;;;6.60;99.90;;;;;;5052102;28;20207;-75
2020/12/04 09:52:02;;;;;;;18.38;11.55;;;6.50;99.90;;;;;;5049975;28;20265;-75
2020/12/04 09:54:31;;;;;;;17.45;10.43;;;6.70;99.90;;;;;;5049926;28;20273;-75
2020/12/04 09:56:58;;;;;;;14.25;9.00;;;7.00;99.90;;;;;;5032530;28;20269;-75
2020/12/04 09:59:25;;;;;;;17.65;10.50;;;7.20;99.90;;;;;;5044127;28;20306;-74
2020/12/04 10:01:54;;;;;;;15.13;9.40;;;7.40;99.90;;;;;;5054244;28;20226;-75
2020/12/04 10:04:23;;;;;;;20.98;11.32;;;7.20;99.90;;;;;;5053910;28;20548;-77
2020/12/04 10:06:50;;;;;;;18.25;10.75;;;7.10;99.90;;;;;;5050386;28;20203;-76
2020/12/04 10:09:16;;;;;;;17.95;10.32;;;7.10;99.90;;;;;;5050411;28;20205;-77
2020/12/04 10:11:45;;;;;;;15.80;11.05;;;7.20;99.90;;;;;;5053822;28;20210;-91
2020/12/04 10:14:11;;;;;;;20.00;10.82;;;7.20;99.90;;;;;;5049843;28;20199;-75
2020/12/04 10:16:38;;;;;;;18.48;11.32;;;7.00;99.90;;;;;;5049718;28;20356;-75
2020/12/04 10:19:04;;;;;;;19.60;10.52;;;7.20;99.90;;;;;;5049607;28;20210;-75
2020/12/04 10:21:36;;;;;;;15.30;9.23;;;7.20;99.90;;;;;;5045202;28;20217;-76
2020/12/04 10:24:04;;;;;;;18.83;10.55;;;7.10;99.90;;;;;;5049531;28;20218;-75
2020/12/04 10:26:31;;;;;;;16.42;10.10;;;7.20;99.90;;;;;;5029949;28;20213;-76
2020/12/04 10:29:00;;;;;;;19.58;10.75;;;7.40;99.90;;;;;;5033007;28;20206;-76
2020/12/04 10:31:26;;;;;;;17.98;9.80;;;7.10;99.90;;;;;;5044279;28;20797;-76
2020/12/04 10:33:53;;;;;;;24.52;9.68;;;7.40;99.90;;;;;;5065314;28;20611;-76
2020/12/04 10:36:23;;;;;;;23.65;10.38;;;7.50;99.90;;;;;;5039234;28;20206;-75
2020/12/04 10:38:49;;;;;;;22.55;11.57;;;7.10;99.90;;;;;;5050308;28;20298;-75
2020/12/04 10:41:17;;;;;;;18.25;9.40;;;7.20;99.90;;;;;;5045683;28;20202;-76
2020/12/04 10:43:43;;;;;;;22.55;11.27;;;7.00;99.90;;;;;;5029725;28;20234;-76
2020/12/04 10:46:10;;;;;;;16.77;9.70;;;7.40;99.90;;;;;;5029905;28;20653;-76
2020/12/04 10:48:37;;;;;;;18.02;10.60;;;7.20;99.90;;;;;;5035216;28;20573;-76
2020/12/04 10:51:03;;;;;;;25.92;10.25;;;7.40;99.90;;;;;;5049901;28;20339;-76
2020/12/04 10:53:30;;;;;;;18.05;10.38;;;7.30;99.90;;;;;;5049167;28;20233;-76
2020/12/04 10:55:57;;;;;;;15.05;9.20;;;7.20;99.90;;;;;;5049086;28;20211;-75
2020/12/04 10:58:23;;;;;;;14.80;9.43;;;7.20;99.90;;;;;;5049811;28;20635;-76
2020/12/04 11:00:51;;;;;;;19.35;10.75;;;7.10;99.90;;;;;;5049852;28;20218;-75
2020/12/04 11:03:30;;;;;;;12.43;8.10;;;7.40;99.90;;;;;;5048616;28;20265;-74
2020/12/04 11:05:56;;;;;;;17.13;10.32;;;7.10;99.90;;;;;;5048808;28;20211;-75
2020/12/04 11:08:23;;;;;;;15.40;9.85;;;7.10;99.90;;;;;;5049053;28;20210;-76
2020/12/04 11:10:49;;;;;;;16.85;10.07;;;7.10;99.90;;;;;;5050022;28;20210;-76
2020/12/04 11:13:16;;;;;;;18.42;9.70;;;7.10;99.90;;;;;;5049655;28;20237;-75
2020/12/04 11:15:42;;;;;;;22.05;11.52;;;7.20;99.90;;;;;;5049884;28;20214;-75
2020/12/04 11:18:09;;;;;;;16.65;10.70;;;7.10;99.90;;;;;;5048572;28;20202;-75
2020/12/04 11:20:37;;;;;;;19.98;11.95;;;7.10;99.90;;;;;;5049478;28;20211;-75
2020/12/04 11:23:04;;;;;;;18.10;9.15;;;7.00;99.90;;;;;;5048194;28;20252;-75
2020/12/04 11:25:31;;;;;;;16.33;10.35;;;7.20;99.90;;;;;;5047592;28;20256;-76
2020/12/04 11:27:59;;;;;;;19.67;11.15;;;7.40;99.90;;;;;;5048680;28;20213;-75
2020/12/04 11:30:28;;;;;;;19.55;10.60;;;7.30;99.90;;;;;;5049401;28;20245;-76
2020/12/04 11:32:55;;;;;;;20.70;11.32;;;7.10;99.90;;;;;;5048224;28;20284;-75
2020/12/04 11:35:22;;;;;;;17.25;9.35;;;7.10;99.90;;;;;;5048566;28;20750;-75
2020/12/04 11:37:50;;;;;;;18.90;8.63;;;6.90;99.90;;;;;;5048210;28;20221;-75
2020/12/04 11:40:18;;;;;;;17.50;9.52;;;7.10;99.90;;;;;;5036502;28;20196;-76
2020/12/04 11:42:46;;;;;;;15.68;10.23;;;7.30;99.90;;;;;;5046619;28;20226;-76
2020/12/04 11:45:15;;;;;;;16.75;8.85;;;7.50;99.90;;;;;;5047855;28;20611;-76
2020/12/04 11:47:42;;;;;;;26.83;11.57;;;7.40;99.90;;;;;;5047861;28;20218;-76
2020/12/04 11:50:12;;;;;;;17.05;9.25;;;7.00;99.90;;;;;;5048489;28;20820;-74
2020/12/04 11:52:38;;;;;;;17.73;10.80;;;7.10;99.90;;;;;;5048324;28;20288;-74
2020/12/04 11:55:07;;;;;;;16.25;10.52;;;7.30;99.90;;;;;;5048788;28;20198;-73
2020/12/04 11:57:34;;;;;;;18.40;10.93;;;7.30;99.90;;;;;;5044040;28;20196;-74
2020/12/04 12:00:01;;;;;;;16.50;11.15;;;7.40;99.90;;;;;;5046542;28;20664;-75
2020/12/04 12:02:28;;;;;;;21.73;11.90;;;7.30;99.90;;;;;;5051782;28;20288;-75
2020/12/04 12:04:54;;;;;;;19.55;12.05;;;7.40;99.90;;;;;;5051707;28;20226;-76
2020/12/04 12:07:21;;;;;;;21.15;12.02;;;7.10;99.90;;;;;;5052396;28;20199;-78
2020/12/04 12:09:48;;;;;;;25.35;11.75;;;7.20;99.90;;;;;;5055146;28;20198;-74
2020/12/04 12:12:16;;;;;;;19.92;11.27;;;6.90;99.90;;;;;;5052499;28;20222;-75
2020/12/04 12:14:44;;;;;;;20.33;11.60;;;6.90;99.90;;;;;;5052523;28;20260;-75
2020/12/04 12:17:11;;;;;;;20.20;11.38;;;6.90;99.90;;;;;;5046566;28;20206;-75
2020/12/04 12:19:39;;;;;;;19.95;11.30;;;7.00;99.90;;;;;;5052205;28;20217;-76
2020/12/04 12:22:07;;;;;;;15.35;9.45;;;7.20;99.90;;;;;;5052202;28;20231;-77
2020/12/04 12:24:34;;;;;;;23.65;12.18;;;7.00;99.90;;;;;;5051433;28;20222;-74
2020/12/04 12:27:00;;;;;;;20.35;11.52;;;7.10;99.90;;;;;;5051701;28;20210;-74
2020/12/04 12:29:28;;;;;;;15.57;9.18;;;7.00;99.90;;;;;;5052027;28;20202;-74
2020/12/04 12:31:54;;;;;;;16.65;10.40;;;7.00;99.90;;;;;;5052253;28;20235;-74
2020/12/04 12:34:21;;;;;;;16.30;10.13;;;6.90;99.90;;;;;;5050430;28;20199;-74
2020/12/04 12:36:47;;;;;;;20.17;12.10;;;6.90;99.90;;;;;;5052244;28;20207;-75
2020/12/04 12:39:14;;;;;;;20.08;11.60;;;6.80;99.90;;;;;;5050334;28;20202;-76
2020/12/04 12:41:40;;;;;;;18.85;10.10;;;7.00;99.90;;;;;;5051097;28;20249;-76
2020/12/04 12:44:07;;;;;;;17.88;11.10;;;7.00;99.90;;;;;;5051991;28;20222;-79